Time;durP1;ratioP1;P1;durP2;ratioP2;P2;SDS_P1;SDS_P2;PMS_P1;PMS_P2;Temp;Humidity;BMP_temperature;BMP_pressure;BME280_temperature;BME280_humidity;BME280_pressure;Samples;Min_cycle;Max_cycle;Signal;HPM_P1;HPM_P2
2022/10/13 00:02:08;;;;;;;7.47;4.90;;;;;16.80;101713.00;;;;5082017;28;20218;-77
2022/10/13 00:04:35;;;;;;;8.15;5.55;;;;;16.80;101715.00;;;;5085141;28;20213;-77
2022/10/13 00:07:02;;;;;;;7.05;4.38;;;;;16.80;101705.00;;;;5083558;28;20191;-77
2022/10/13 00:09:31;;;;;;;5.30;4.28;;;;;16.80;101707.00;;;;5072857;28;20203;-77
2022/10/13 00:11:58;;;;;;;12.23;5.05;;;;;16.80;101699.00;;;;5077269;28;20222;-77
2022/10/13 00:14:25;;;;;;;11.85;4.93;;;;;16.80;101704.00;;;;5088561;28;20203;-77
2022/10/13 00:16:53;;;;;;;7.90;5.30;;;;;16.80;101706.00;;;;5083830;28;20195;-77
2022/10/13 00:19:20;;;;;;;7.35;5.13;;;;;16.80;101713.00;;;;5076072;28;20689;-77
2022/10/13 00:21:47;;;;;;;8.93;5.38;;;;;16.80;101703.00;;;;5086730;28;20197;-77
2022/10/13 00:24:15;;;;;;;8.38;5.18;;;;;16.80;101705.00;;;;5081837;28;20203;-77
2022/10/13 00:26:43;;;;;;;9.23;4.68;;;;;16.80;101705.00;;;;5077621;28;20289;-77
2022/10/13 00:29:10;;;;;;;10.52;5.10;;;;;16.80;101704.00;;;;5086092;28;20222;-77
2022/10/13 00:31:38;;;;;;;7.30;5.28;;;;;16.80;101699.00;;;;5089041;28;20214;-76
2022/10/13 00:34:05;;;;;;;8.70;5.18;;;;;16.80;101700.00;;;;5090271;28;20197;-77
2022/10/13 00:36:32;;;;;;;7.22;4.78;;;;;16.80;101700.00;;;;5087513;28;20579;-77
2022/10/13 00:39:00;;;;;;;6.47;5.13;;;;;16.80;101703.00;;;;5088204;28;20967;-77
2022/10/13 00:41:27;;;;;;;8.70;5.35;;;;;16.80;101688.00;;;;5087839;28;20210;-77
2022/10/13 00:44:01;;;;;;;10.20;5.65;;;;;16.80;101695.00;;;;5088567;28;20221;-77
2022/10/13 00:46:31;;;;;;;6.13;4.95;;;;;16.80;101699.00;;;;5089400;28;20204;-77
2022/10/13 00:49:00;;;;;;;7.22;4.28;;;;;16.80;101695.00;;;;5087200;28;20194;-77
2022/10/13 00:51:31;;;;;;;8.60;5.15;;;;;16.90;101698.00;;;;5085497;28;20326;-76
2022/10/13 00:54:01;;;;;;;9.38;5.03;;;;;16.90;101702.00;;;;5083338;28;20759;-76
2022/10/13 00:56:29;;;;;;;7.20;5.78;;;;;16.90;101700.00;;;;5083624;28;20198;-76
2022/10/13 00:58:59;;;;;;;7.40;5.68;;;;;16.90;101693.00;;;;5083485;28;20206;-76
2022/10/13 01:01:27;;;;;;;7.35;5.00;;;;;16.90;101690.00;;;;5083086;28;20198;-76
2022/10/13 01:03:54;;;;;;;5.95;4.82;;;;;16.90;101702.00;;;;5090416;28;20191;-76
2022/10/13 01:06:21;;;;;;;7.57;4.80;;;;;16.90;101700.00;;;;5087986;28;20205;-76
2022/10/13 01:08:49;;;;;;;8.00;4.95;;;;;16.90;101692.00;;;;5085986;28;20190;-77
2022/10/13 01:11:48;;;;;;;6.97;5.00;;;;;16.80;101690.00;;;;5081231;28;20580;-76
2022/10/13 01:14:23;;;;;;;6.55;4.20;;;;;16.90;101694.00;;;;5084321;28;20195;-76
2022/10/13 01:17:00;;;;;;;8.35;5.43;;;;;16.90;101689.00;;;;5082466;28;20186;-76
2022/10/13 01:20:01;;;;;;;8.80;5.20;;;;;16.80;101696.00;;;;5082623;28;20225;-76
2022/10/13 01:22:45;;;;;;;5.47;4.65;;;;;16.90;101688.00;;;;5082568;28;20198;-76
2022/10/13 01:25:28;;;;;;;10.48;4.35;;;;;16.90;101689.00;;;;5089554;28;20191;-76
2022/10/13 01:28:27;;;;;;;9.13;4.78;;;;;16.90;101689.00;;;;5087065;28;20205;-76
2022/10/13 01:31:01;;;;;;;6.65;4.35;;;;;16.90;101688.00;;;;5082162;28;20191;-76
2022/10/13 01:33:37;;;;;;;7.15;4.75;;;;;16.90;101679.00;;;;5086604;28;20202;-76
2022/10/13 01:36:15;;;;;;;10.93;5.28;;;;;17.00;101685.00;;;;5083032;28;20197;-76
2022/10/13 01:38:52;;;;;;;6.93;4.43;;;;;17.00;101689.00;;;;5081117;28;20201;-76
2022/10/13 01:41:25;;;;;;;6.60;4.75;;;;;17.00;101680.00;;;;5085123;28;20205;-76
2022/10/13 01:43:57;;;;;;;11.85;5.13;;;;;17.00;101680.00;;;;5084405;28;20197;-77
2022/10/13 01:46:29;;;;;;;8.13;5.15;;;;;17.00;101677.00;;;;5088564;28;20209;-76
2022/10/13 01:49:01;;;;;;;6.88;4.97;;;;;17.00;101679.00;;;;5081280;28;20690;-76
2022/10/13 01:51:31;;;;;;;9.10;4.60;;;;;17.00;101669.00;;;;5081024;28;20222;-76
2022/10/13 01:53:58;;;;;;;6.57;4.95;;;;;17.10;101672.00;;;;5083535;28;20659;-77
2022/10/13 01:56:25;;;;;;;7.53;5.13;;;;;17.10;101673.00;;;;5077961;28;20194;-76
2022/10/13 01:58:55;;;;;;;5.93;4.90;;;;;17.10;101673.00;;;;5082948;28;20708;-76
2022/10/13 02:01:39;;;;;;;7.00;4.68;;;;;17.00;101664.00;;;;5079754;28;20209;-76
2022/10/13 02:04:20;;;;;;;6.95;4.93;;;;;17.10;101663.00;;;;5087842;28;20579;-76
2022/10/13 02:06:52;;;;;;;8.38;5.50;;;;;17.10;101633.00;;;;5079793;28;20195;-76
2022/10/13 02:09:26;;;;;;;7.05;5.13;;;;;17.10;101647.00;;;;5069536;28;20199;-76
2022/10/13 02:11:59;;;;;;;5.78;5.13;;;;;17.10;101643.00;;;;5078888;28;20621;-76
2022/10/13 02:14:29;;;;;;;6.40;4.53;;;;;17.10;101648.00;;;;5088913;28;20252;-76
2022/10/13 02:17:02;;;;;;;6.15;4.72;;;;;17.10;101651.00;;;;5083894;28;20198;-76
2022/10/13 02:19:32;;;;;;;8.10;5.63;;;;;17.10;101647.00;;;;5088032;28;20228;-77
2022/10/13 02:22:00;;;;;;;8.50;5.72;;;;;17.20;101644.00;;;;5086374;28;20510;-76
2022/10/13 02:24:28;;;;;;;6.40;4.90;;;;;17.20;101645.00;;;;5080320;28;20191;-76
2022/10/13 02:26:56;;;;;;;9.75;5.18;;;;;17.20;101638.00;;;;5087303;28;20198;-77
2022/10/13 02:29:23;;;;;;;9.50;5.93;;;;;17.20;101637.00;;;;5084950;28;20264;-76
2022/10/13 02:31:52;;;;;;;6.47;4.80;;;;;17.20;101636.00;;;;5084209;28;20229;-76
2022/10/13 02:34:21;;;;;;;7.95;5.38;;;;;17.20;101644.00;;;;5083231;28;20205;-76
2022/10/13 02:36:48;;;;;;;7.25;4.80;;;;;17.20;101636.00;;;;5083539;28;20201;-76
2022/10/13 02:39:16;;;;;;;7.70;5.60;;;;;17.20;101638.00;;;;5082672;28;20203;-76
2022/10/13 02:41:44;;;;;;;7.32;5.20;;;;;17.20;101631.00;;;;5075938;28;20254;-76
2022/10/13 02:44:11;;;;;;;8.15;4.68;;;;;17.20;101625.00;;;;5086733;28;20804;-76
2022/10/13 02:46:38;;;;;;;9.38;5.88;;;;;17.20;101621.00;;;;5086662;28;20195;-76
2022/10/13 02:49:06;;;;;;;9.93;5.53;;;;;17.20;101617.00;;;;5081876;28;20187;-76
2022/10/13 02:51:34;;;;;;;7.85;4.47;;;;;17.20;101607.00;;;;5078610;28;20210;-76
2022/10/13 02:54:02;;;;;;;7.80;5.40;;;;;17.30;101600.00;;;;5085424;28;20194;-76
2022/10/13 02:56:29;;;;;;;7.45;4.80;;;;;17.30;101585.00;;;;5074302;28;20575;-77
2022/10/13 02:58:56;;;;;;;8.32;4.75;;;;;17.30;101569.00;;;;5084819;28;20205;-77
2022/10/13 03:01:23;;;;;;;7.45;4.93;;;;;17.30;101581.00;;;;5081580;28;20201;-76
2022/10/13 03:03:50;;;;;;;7.63;4.75;;;;;17.30;101600.00;;;;5073076;28;20206;-76
2022/10/13 03:06:18;;;;;;;7.72;5.25;;;;;17.30;101607.00;;;;5083398;28;20186;-76
2022/10/13 03:08:46;;;;;;;6.60;4.93;;;;;17.40;101618.00;;;;5086312;28;20206;-76
2022/10/13 03:11:14;;;;;;;13.30;4.78;;;;;17.40;101617.00;;;;5080126;28;20205;-77
2022/10/13 03:13:41;;;;;;;8.05;4.90;;;;;17.40;101608.00;;;;5081763;28;20214;-76
2022/10/13 03:16:09;;;;;;;7.20;5.15;;;;;17.40;101615.00;;;;5070871;28;20657;-76
2022/10/13 03:18:36;;;;;;;8.75;4.55;;;;;17.40;101617.00;;;;5077127;28;20202;-76
2022/10/13 03:21:05;;;;;;;9.35;5.00;;;;;17.40;101617.00;;;;5085208;28;20217;-76
2022/10/13 03:23:33;;;;;;;8.88;5.05;;;;;17.50;101612.00;;;;5086844;28;20199;-76
2022/10/13 03:26:03;;;;;;;6.70;5.30;;;;;17.50;101602.00;;;;5068409;28;20197;-76
2022/10/13 03:28:30;;;;;;;7.70;5.03;;;;;17.50;101600.00;;;;5076671;28;20319;-77
2022/10/13 03:31:01;;;;;;;6.57;5.18;;;;;17.50;101605.00;;;;5077069;28;20199;-76
2022/10/13 03:33:29;;;;;;;5.97;4.80;;;;;17.50;101589.00;;;;5084038;28;20222;-76
2022/10/13 03:35:59;;;;;;;6.35;4.93;;;;;17.50;101591.00;;;;5074582;28;20206;-77
2022/10/13 03:38:26;;;;;;;5.85;4.55;;;;;17.60;101581.00;;;;5086624;28;20338;-77
2022/10/13 03:40:53;;;;;;;7.38;4.70;;;;;17.60;101574.00;;;;5075410;28;20194;-76
2022/10/13 03:43:22;;;;;;;10.27;5.30;;;;;17.60;101566.00;;;;5087741;28;20205;-76
2022/10/13 03:45:56;;;;;;;7.05;5.35;;;;;17.60;101576.00;;;;5091228;28;20212;-76
2022/10/13 03:48:23;;;;;;;8.27;5.70;;;;;17.60;101582.00;;;;5086630;28;20202;-76
2022/10/13 03:50:51;;;;;;;7.43;5.35;;;;;17.70;101580.00;;;;5090272;28;20214;-76
2022/10/13 03:53:18;;;;;;;7.63;5.53;;;;;17.70;101581.00;;;;5086451;28;20225;-76
2022/10/13 03:55:50;;;;;;;8.18;4.85;;;;;17.60;101583.00;;;;5083733;28;20281;-77
2022/10/13 03:58:18;;;;;;;8.75;5.70;;;;;17.70;101576.00;;;;5080094;28;20198;-77
2022/10/13 04:00:46;;;;;;;7.18;5.30;;;;;17.70;101566.00;;;;5088988;28;20668;-77
2022/10/13 04:03:14;;;;;;;8.40;5.60;;;;;17.70;101562.00;;;;5088490;28;20202;-77
2022/10/13 04:05:41;;;;;;;7.20;5.78;;;;;17.70;101575.00;;;;5081111;28;20203;-77
2022/10/13 04:08:09;;;;;;;6.85;5.00;;;;;17.70;101577.00;;;;5078986;28;20198;-76
2022/10/13 04:10:36;;;;;;;7.85;5.32;;;;;17.70;101573.00;;;;5087162;28;20213;-76
2022/10/13 04:13:04;;;;;;;8.63;5.50;;;;;17.80;101560.00;;;;5086501;28;20246;-76
2022/10/13 04:15:35;;;;;;;6.40;5.13;;;;;17.80;101545.00;;;;5090826;28;20282;-76
2022/10/13 04:18:04;;;;;;;8.00;5.00;;;;;17.80;101548.00;;;;5085972;28;20202;-76
2022/10/13 04:20:31;;;;;;;7.57;5.07;;;;;17.80;101546.00;;;;5084459;28;20222;-76
2022/10/13 04:22:59;;;;;;;5.82;5.00;;;;;17.80;101536.00;;;;5083807;28;20236;-76
2022/10/13 04:25:26;;;;;;;8.32;5.93;;;;;17.90;101532.00;;;;5085123;28;20217;-76
2022/10/13 04:27:53;;;;;;;6.93;4.97;;;;;17.90;101522.00;;;;5083943;28;20194;-76
2022/10/13 04:30:21;;;;;;;12.13;5.68;;;;;17.90;101531.00;;;;5088627;28;20695;-76
2022/10/13 04:32:48;;;;;;;9.07;5.47;;;;;17.90;101537.00;;;;5089468;28;20218;-76
2022/10/13 04:35:16;;;;;;;7.45;5.57;;;;;17.90;101554.00;;;;5089453;28;20589;-76
2022/10/13 04:37:44;;;;;;;6.38;5.40;;;;;18.00;101554.00;;;;5085539;28;20201;-76
2022/10/13 04:40:11;;;;;;;7.15;5.35;;;;;18.00;101552.00;;;;5087338;28;20194;-76
2022/10/13 04:42:39;;;;;;;8.35;5.47;;;;;18.00;101550.00;;;;5086703;28;20194;-76
2022/10/13 04:45:07;;;;;;;7.35;5.32;;;;;18.00;101550.00;;;;5089669;28;20201;-76
2022/10/13 04:47:36;;;;;;;7.38;5.05;;;;;18.00;101549.00;;;;5090856;28;20396;-76
2022/10/13 04:50:04;;;;;;;6.55;4.93;;;;;18.00;101554.00;;;;5082964;28;20198;-76
2022/10/13 04:52:34;;;;;;;9.23;5.25;;;;;18.00;101561.00;;;;5087337;28;20226;-77
2022/10/13 04:55:01;;;;;;;8.90;5.35;;;;;18.00;101551.00;;;;5085760;28;20664;-76
2022/10/13 04:57:29;;;;;;;6.82;5.20;;;;;18.00;101550.00;;;;5077706;28;20218;-76
2022/10/13 04:59:56;;;;;;;7.75;5.80;;;;;18.00;101553.00;;;;5077216;28;20554;-76
2022/10/13 05:02:23;;;;;;;7.72;5.50;;;;;18.00;101549.00;;;;5083747;28;20198;-76
2022/10/13 05:04:51;;;;;;;9.32;6.32;;;;;18.00;101553.00;;;;5083162;28;20578;-76
2022/10/13 05:07:18;;;;;;;10.77;5.97;;;;;18.00;101554.00;;;;5086466;28;20195;-76
2022/10/13 05:09:46;;;;;;;9.23;5.32;;;;;18.00;101565.00;;;;5074338;28;20202;-77
2022/10/13 05:12:15;;;;;;;8.02;5.70;;;;;18.10;101559.00;;;;5072594;28;20198;-77
2022/10/13 05:14:42;;;;;;;9.98;6.10;;;;;18.10;101567.00;;;;5080312;28;20190;-77
2022/10/13 05:17:09;;;;;;;6.45;5.35;;;;;18.10;101567.00;;;;5075696;28;20198;-77
2022/10/13 05:19:36;;;;;;;10.20;6.13;;;;;18.10;101569.00;;;;5082446;28;20671;-75
2022/10/13 05:22:04;;;;;;;6.90;5.32;;;;;18.10;101569.00;;;;5074031;28;20194;-77
2022/10/13 05:24:35;;;;;;;6.97;5.65;;;;;18.10;101558.00;;;;5083812;28;20198;-77
2022/10/13 05:27:06;;;;;;;7.53;5.43;;;;;18.10;101552.00;;;;5087442;28;20202;-77
2022/10/13 05:29:33;;;;;;;8.45;5.45;;;;;18.10;101559.00;;;;5078667;28;20222;-77
2022/10/13 05:32:01;;;;;;;6.57;5.10;;;;;18.10;101546.00;;;;5089760;28;20754;-77
2022/10/13 05:34:32;;;;;;;8.55;6.13;;;;;18.10;101556.00;;;;5088794;28;20199;-77
2022/10/13 05:36:59;;;;;;;7.97;5.55;;;;;18.10;101558.00;;;;5080083;28;20510;-77
2022/10/13 05:39:27;;;;;;;9.52;6.07;;;;;18.20;101550.00;;;;5086923;28;20194;-78
2022/10/13 05:41:54;;;;;;;7.50;5.13;;;;;18.20;101555.00;;;;5086346;28;20214;-77
2022/10/13 05:44:23;;;;;;;9.60;5.45;;;;;18.20;101552.00;;;;5078902;28;20194;-74
2022/10/13 05:46:50;;;;;;;8.35;5.57;;;;;18.20;101559.00;;;;5082086;28;20199;-75
2022/10/13 05:49:18;;;;;;;7.95;5.50;;;;;18.20;101555.00;;;;5074983;28;20209;-77
2022/10/13 05:51:47;;;;;;;8.30;5.97;;;;;18.20;101547.00;;;;5079286;28;20198;-77
2022/10/13 05:54:18;;;;;;;8.68;5.95;;;;;18.20;101548.00;;;;5079713;28;20688;-78
2022/10/13 05:56:51;;;;;;;8.25;5.90;;;;;18.20;101546.00;;;;5088668;28;20194;-78
2022/10/13 05:59:21;;;;;;;8.23;5.43;;;;;18.20;101548.00;;;;5083498;28;20190;-77
2022/10/13 06:01:50;;;;;;;8.35;5.53;;;;;18.20;101539.00;;;;5081698;28;20199;-78
2022/10/13 06:04:20;;;;;;;10.05;5.78;;;;;18.20;101536.00;;;;5082291;28;20199;-77
2022/10/13 06:06:48;;;;;;;7.05;5.22;;;;;18.20;101518.00;;;;5069521;28;20206;-77
2022/10/13 06:09:16;;;;;;;8.68;6.40;;;;;18.30;101511.00;;;;5078422;28;20202;-77
2022/10/13 06:11:43;;;;;;;6.00;5.20;;;;;18.30;101513.00;;;;5089233;28;20233;-78
2022/10/13 06:14:11;;;;;;;7.57;4.75;;;;;18.30;101509.00;;;;5084629;28;20233;-77
2022/10/13 06:16:38;;;;;;;8.43;5.47;;;;;18.30;101499.00;;;;5071828;28;20205;-77
2022/10/13 06:19:07;;;;;;;10.75;5.82;;;;;18.30;101509.00;;;;5073048;28;20629;-77
2022/10/13 06:21:35;;;;;;;6.80;5.22;;;;;18.40;101514.00;;;;5064814;28;20198;-77
2022/10/13 06:24:08;;;;;;;8.63;5.07;;;;;18.30;101521.00;;;;5065141;28;20205;-75
2022/10/13 06:26:36;;;;;;;8.75;5.82;;;;;18.40;101513.00;;;;5063987;28;20244;-75
2022/10/13 06:29:03;;;;;;;7.50;5.07;;;;;18.40;101504.00;;;;5065128;28;20222;-75
2022/10/13 06:31:30;;;;;;;8.18;5.53;;;;;18.40;101501.00;;;;5072014;28;20205;-75
2022/10/13 06:33:58;;;;;;;8.38;5.43;;;;;18.40;101502.00;;;;5078088;28;20222;-74
2022/10/13 06:36:27;;;;;;;6.15;4.38;;;;;18.40;101514.00;;;;5085265;28;20209;-75
2022/10/13 06:38:54;;;;;;;7.18;5.22;;;;;18.50;101519.00;;;;5068835;28;20194;-75
2022/10/13 06:41:22;;;;;;;13.90;5.80;;;;;18.50;101530.00;;;;5069821;28;20579;-75
2022/10/13 06:43:49;;;;;;;7.65;5.50;;;;;18.50;101533.00;;;;5085581;28;20206;-75
2022/10/13 06:46:16;;;;;;;8.32;5.05;;;;;18.50;101525.00;;;;5074605;28;20195;-76
2022/10/13 06:48:44;;;;;;;8.70;5.38;;;;;18.50;101531.00;;;;5068672;28;20671;-76
2022/10/13 06:51:12;;;;;;;8.88;5.28;;;;;18.50;101536.00;;;;5069509;28;20215;-75
2022/10/13 06:53:42;;;;;;;8.68;5.32;;;;;18.50;101531.00;;;;5083397;28;20271;-75
2022/10/13 06:56:10;;;;;;;6.60;5.45;;;;;18.50;101530.00;;;;5076334;28;20199;-76
2022/10/13 06:58:37;;;;;;;12.02;5.30;;;;;18.50;101536.00;;;;5074955;28;20199;-75
2022/10/13 07:01:05;;;;;;;7.22;5.30;;;;;18.50;101535.00;;;;5079591;28;20190;-76
2022/10/13 07:03:33;;;;;;;6.75;5.35;;;;;18.60;101536.00;;;;5083123;28;20667;-76
2022/10/13 07:06:01;;;;;;;6.25;5.40;;;;;18.60;101526.00;;;;5075632;28;20691;-77
2022/10/13 07:08:29;;;;;;;9.10;5.10;;;;;18.60;101534.00;;;;5078604;28;20199;-76
2022/10/13 07:10:57;;;;;;;7.78;6.00;;;;;18.60;101526.00;;;;5074939;28;20668;-76
2022/10/13 07:13:25;;;;;;;8.27;5.95;;;;;18.60;101536.00;;;;5073891;28;20225;-77
2022/10/13 07:15:52;;;;;;;7.15;5.20;;;;;18.60;101529.00;;;;5074689;28;20851;-76
2022/10/13 07:18:19;;;;;;;6.93;5.68;;;;;18.60;101527.00;;;;5071144;28;20191;-76
2022/10/13 07:20:47;;;;;;;7.90;5.32;;;;;18.60;101532.00;;;;5074520;28;20228;-76
2022/10/13 07:23:14;;;;;;;8.18;5.78;;;;;18.70;101533.00;;;;5076159;28;20723;-76
2022/10/13 07:25:41;;;;;;;10.45;5.57;;;;;18.70;101527.00;;;;5087387;28;20202;-76
2022/10/13 07:28:10;;;;;;;8.13;4.70;;;;;18.70;101523.00;;;;5080280;28;20753;-76
2022/10/13 07:30:39;;;;;;;8.70;5.20;;;;;18.70;101522.00;;;;5083552;28;20234;-78
2022/10/13 07:33:07;;;;;;;8.27;5.25;;;;;18.70;101522.00;;;;5085612;28;20218;-77
2022/10/13 07:35:34;;;;;;;9.32;6.05;;;;;18.70;101519.00;;;;5077116;28;20198;-77
2022/10/13 07:38:01;;;;;;;9.15;5.47;;;;;18.70;101523.00;;;;5079164;28;20202;-77
2022/10/13 07:40:29;;;;;;;9.50;6.43;;;;;18.80;101527.00;;;;5085226;28;20198;-77
2022/10/13 07:42:56;;;;;;;8.98;5.95;;;;;18.80;101517.00;;;;5070178;28;20226;-77
2022/10/13 07:45:26;;;;;;;8.55;6.03;;;;;18.80;101523.00;;;;5081138;28;20682;-77
2022/10/13 07:47:53;;;;;;;7.15;5.60;;;;;18.80;101520.00;;;;5078634;28;20198;-77
2022/10/13 07:50:20;;;;;;;8.60;5.93;;;;;18.80;101528.00;;;;5081968;28;20199;-79
2022/10/13 07:52:48;;;;;;;7.35;5.63;;;;;18.90;101524.00;;;;5085100;28;20202;-78
2022/10/13 07:55:15;;;;;;;7.68;6.13;;;;;18.90;101524.00;;;;5083728;28;20202;-77
2022/10/13 07:57:42;;;;;;;10.48;6.57;;;;;18.90;101532.00;;;;5079083;28;20293;-77
2022/10/13 08:00:11;;;;;;;8.95;5.88;;;;;18.90;101529.00;;;;5075770;28;20205;-77
2022/10/13 08:02:39;;;;;;;7.88;6.38;;;;;19.00;101529.00;;;;5085609;28;20567;-78
2022/10/13 08:05:07;;;;;;;9.20;6.35;;;;;19.00;101531.00;;;;5087239;28;20202;-77
2022/10/13 08:07:36;;;;;;;10.48;6.55;;;;;19.00;101524.00;;;;5079547;28;20194;-77
2022/10/13 08:10:04;;;;;;;9.70;5.53;;;;;19.00;101520.00;;;;5085621;28;20202;-78
2022/10/13 08:12:31;;;;;;;7.03;5.57;;;;;19.10;101516.00;;;;5081843;28;20203;-77
2022/10/13 08:14:58;;;;;;;8.65;6.38;;;;;19.10;101518.00;;;;5086386;28;20218;-77
2022/10/13 08:17:26;;;;;;;8.85;6.30;;;;;19.20;101508.00;;;;5077739;28;20703;-77
2022/10/13 08:19:55;;;;;;;9.07;5.90;;;;;19.20;101523.00;;;;5079233;28;20322;-77
2022/10/13 08:22:22;;;;;;;7.63;6.30;;;;;19.20;101521.00;;;;5077950;28;20649;-77
2022/10/13 08:24:49;;;;;;;8.43;6.55;;;;;19.20;101516.00;;;;5084325;28;20202;-77
2022/10/13 08:27:21;;;;;;;8.25;6.28;;;;;19.20;101529.00;;;;5078613;28;20232;-77
2022/10/13 08:29:48;;;;;;;8.38;6.60;;;;;19.30;101525.00;;;;5088408;28;20225;-77
2022/10/13 08:32:15;;;;;;;7.78;6.13;;;;;19.30;101524.00;;;;5078033;28;20689;-77
2022/10/13 08:34:42;;;;;;;8.20;6.07;;;;;19.30;101527.00;;;;5085674;28;20225;-77
2022/10/13 08:37:15;;;;;;;7.10;5.75;;;;;19.30;101533.00;;;;5085711;28;20199;-77
2022/10/13 08:39:43;;;;;;;9.27;5.97;;;;;19.30;101533.00;;;;5081696;28;20207;-77
2022/10/13 08:42:17;;;;;;;7.65;5.57;;;;;19.30;101533.00;;;;5090659;28;20206;-77
2022/10/13 08:44:48;;;;;;;9.45;6.00;;;;;19.40;101533.00;;;;5073681;28;20611;-77
2022/10/13 08:47:24;;;;;;;9.52;4.85;;;;;19.30;101526.00;;;;5075400;28;20208;-77
2022/10/13 08:49:51;;;;;;;8.95;5.47;;;;;19.40;101532.00;;;;5084281;28;20194;-77
2022/10/13 08:52:22;;;;;;;7.88;5.13;;;;;19.40;101531.00;;;;5086150;28;20506;-77
2022/10/13 08:54:50;;;;;;;8.40;5.53;;;;;19.40;101519.00;;;;5081911;28;20249;-77
2022/10/13 08:57:18;;;;;;;6.90;4.65;;;;;19.50;101518.00;;;;5071204;28;20202;-77
2022/10/13 08:59:46;;;;;;;7.53;5.28;;;;;19.50;101515.00;;;;5088839;28;20195;-76
2022/10/13 09:02:16;;;;;;;11.20;5.03;;;;;19.50;101516.00;;;;5082558;28;20214;-77
2022/10/13 09:04:48;;;;;;;8.25;5.88;;;;;19.50;101511.00;;;;5083178;28;20209;-76
2022/10/13 09:07:18;;;;;;;7.90;4.70;;;;;19.60;101509.00;;;;5080527;28;20206;-76
2022/10/13 09:09:50;;;;;;;8.35;5.03;;;;;19.60;101512.00;;;;5081424;28;20195;-76
2022/10/13 09:12:20;;;;;;;8.88;5.28;;;;;19.60;101517.00;;;;5076955;28;20686;-76
2022/10/13 09:14:58;;;;;;;7.25;5.10;;;;;19.60;101514.00;;;;5085995;28;20230;-76
2022/10/13 09:17:26;;;;;;;7.70;5.35;;;;;19.70;101513.00;;;;5087826;28;20229;-76
2022/10/13 09:20:00;;;;;;;7.93;5.07;;;;;19.60;101515.00;;;;5089218;28;20217;-76
2022/10/13 09:22:29;;;;;;;8.35;4.82;;;;;19.70;101508.00;;;;5081103;28;20203;-76
2022/10/13 09:25:10;;;;;;;6.93;4.72;;;;;19.60;101508.00;;;;5074228;28;20222;-75
2022/10/13 09:27:45;;;;;;;6.35;4.68;;;;;19.70;101503.00;;;;5084084;28;20186;-76
2022/10/13 09:30:28;;;;;;;8.18;4.78;;;;;19.80;101499.00;;;;5087268;28;20226;-75
2022/10/13 09:33:14;;;;;;;6.47;4.63;;;;;19.90;101506.00;;;;5089682;28;20198;-75
2022/10/13 09:35:43;;;;;;;6.97;4.63;;;;;20.00;101511.00;;;;5071250;28;20230;-76
2022/10/13 09:38:13;;;;;;;10.00;5.40;;;;;20.00;101500.00;;;;5069363;28;20195;-75
2022/10/13 09:40:43;;;;;;;8.77;5.53;;;;;20.00;101504.00;;;;5072700;28;20191;-75
2022/10/13 09:43:27;;;;;;;8.63;4.90;;;;;20.00;101510.00;;;;5081952;28;20191;-75
2022/10/13 09:45:55;;;;;;;11.15;5.88;;;;;20.20;101506.00;;;;5078804;28;20206;-75
2022/10/13 09:48:26;;;;;;;9.57;5.32;;;;;20.20;101505.00;;;;5085645;28;20202;-76
2022/10/13 09:50:55;;;;;;;7.65;5.13;;;;;20.20;101505.00;;;;5085239;28;20190;-75
2022/10/13 09:53:28;;;;;;;11.95;6.30;;;;;20.30;101502.00;;;;5069405;28;20720;-75
2022/10/13 09:56:18;;;;;;;10.05;5.28;;;;;20.20;101499.00;;;;5072573;28;20193;-76
2022/10/13 09:58:51;;;;;;;11.32;5.45;;;;;20.30;101501.00;;;;5074907;28;20556;-76
2022/10/13 10:01:23;;;;;;;9.65;4.93;;;;;20.30;101497.00;;;;5083153;28;20626;-76
2022/10/13 10:03:51;;;;;;;8.45;5.63;;;;;20.40;101507.00;;;;5078800;28;20195;-77
2022/10/13 10:06:19;;;;;;;9.10;5.30;;;;;20.40;101502.00;;;;5083840;28;20194;-77
2022/10/13 10:08:55;;;;;;;7.95;5.40;;;;;20.40;101495.00;;;;5085149;28;20210;-76
2022/10/13 10:11:31;;;;;;;10.57;5.38;;;;;20.50;101498.00;;;;5071011;28;20303;-76
2022/10/13 10:14:00;;;;;;;8.57;5.32;;;;;20.60;101493.00;;;;5086771;28;20683;-77
2022/10/13 10:16:35;;;;;;;7.20;5.35;;;;;20.60;101490.00;;;;5083471;28;20198;-76
2022/10/13 10:19:11;;;;;;;8.25;5.20;;;;;20.60;101496.00;;;;5089093;28;20202;-76
2022/10/13 10:21:43;;;;;;;11.23;6.35;;;;;20.70;101489.00;;;;5090070;28;20190;-76
2022/10/13 10:24:25;;;;;;;13.95;5.60;;;;;20.70;101486.00;;;;5088583;28;20246;-77
2022/10/13 10:26:58;;;;;;;9.48;4.80;;;;;20.80;101488.00;;;;5069577;28;20206;-74
2022/10/13 10:29:37;;;;;;;7.40;5.93;;;;;20.90;101491.00;;;;5070802;28;20226;-76
2022/10/13 10:32:20;;;;;;;9.82;5.63;;;;;21.00;101479.00;;;;5074145;28;20205;-76
2022/10/13 10:34:53;;;;;;;10.73;6.00;;;;;21.10;101478.00;;;;5082917;28;20229;-76
2022/10/13 10:37:28;;;;;;;9.60;5.82;;;;;21.10;101472.00;;;;5078870;28;20205;-76
2022/10/13 10:40:06;;;;;;;13.55;6.68;;;;;21.20;101486.00;;;;5079236;28;20301;-76
2022/10/13 10:42:53;;;;;;;10.00;5.60;;;;;21.20;101484.00;;;;5083291;28;20194;-76
2022/10/13 10:45:24;;;;;;;9.43;5.32;;;;;21.20;101481.00;;;;5074221;28;20206;-76
2022/10/13 10:47:56;;;;;;;11.88;6.25;;;;;21.20;101481.00;;;;5080827;28;20201;-76
2022/10/13 10:50:24;;;;;;;12.15;5.88;;;;;21.30;101488.00;;;;5081685;28;20210;-76
2022/10/13 10:52:58;;;;;;;8.93;5.95;;;;;21.20;101485.00;;;;5074048;28;20812;-76
2022/10/13 10:55:32;;;;;;;8.18;5.93;;;;;21.20;101488.00;;;;5087329;28;20214;-76
2022/10/13 10:58:16;;;;;;;7.75;5.88;;;;;21.20;101481.00;;;;5069251;28;20278;-76
2022/10/13 11:00:53;;;;;;;7.47;6.13;;;;;21.20;101482.00;;;;5069112;28;20214;-76
2022/10/13 11:03:33;;;;;;;8.55;5.63;;;;;21.20;101478.00;;;;5082847;28;20565;-76
2022/10/13 11:06:03;;;;;;;10.60;6.50;;;;;21.30;101471.00;;;;5082726;28;20203;-76
2022/10/13 11:08:40;;;;;;;9.57;5.97;;;;;21.20;101462.00;;;;5083358;28;20309;-76
2022/10/13 11:11:29;;;;;;;10.18;6.43;;;;;21.10;101460.00;;;;5087627;28;20194;-76
2022/10/13 11:14:01;;;;;;;11.82;7.30;;;;;21.20;101463.00;;;;5076959;28;20197;-76
2022/10/13 11:16:32;;;;;;;9.18;6.10;;;;;21.20;101461.00;;;;5089034;28;20190;-76
2022/10/13 11:19:05;;;;;;;8.77;6.47;;;;;21.20;101455.00;;;;5086240;28;20194;-76
2022/10/13 11:22:20;;;;;;;9.45;6.68;;;;;21.00;101458.00;;;;5087341;28;20209;-75
2022/10/13 11:25:02;;;;;;;7.88;5.72;;;;;21.10;101452.00;;;;5086488;28;20198;-75
2022/10/13 11:27:43;;;;;;;9.88;6.07;;;;;21.00;101461.00;;;;5088723;28;20198;-76
2022/10/13 11:30:41;;;;;;;11.90;6.07;;;;;20.90;101457.00;;;;5087801;28;20241;-76
2022/10/13 11:33:34;;;;;;;9.77;6.40;;;;;20.90;101453.00;;;;5087920;28;20225;-76
2022/10/13 11:36:34;;;;;;;8.57;6.30;;;;;20.90;101449.00;;;;5086757;28;20214;-76
2022/10/13 11:39:15;;;;;;;7.75;5.28;;;;;20.90;101441.00;;;;5085919;28;20548;-76
2022/10/13 11:41:52;;;;;;;10.18;6.05;;;;;20.90;101440.00;;;;5087980;28;20209;-76
2022/10/13 11:44:25;;;;;;;11.68;6.07;;;;;21.00;101439.00;;;;5087748;28;20683;-76
2022/10/13 11:47:02;;;;;;;8.65;6.15;;;;;20.90;101441.00;;;;5071013;28;20198;-76
2022/10/13 11:49:56;;;;;;;8.35;5.50;;;;;20.90;101438.00;;;;5088171;28;20243;-76
2022/10/13 11:52:59;;;;;;;8.02;5.40;;;;;20.80;101447.00;;;;5082776;28;20194;-76
2022/10/13 11:55:36;;;;;;;8.50;5.30;;;;;20.90;101432.00;;;;5076984;28;20226;-76
2022/10/13 11:58:14;;;;;;;10.63;5.95;;;;;20.90;101428.00;;;;5078034;28;20746;-76
2022/10/13 12:00:51;;;;;;;10.98;6.05;;;;;20.90;101429.00;;;;5075319;28;20202;-76
2022/10/13 12:03:26;;;;;;;7.65;5.65;;;;;20.90;101429.00;;;;5077455;28;20671;-76
2022/10/13 12:05:55;;;;;;;10.38;5.15;;;;;20.90;101431.00;;;;5082000;28;20664;-75
2022/10/13 12:08:23;;;;;;;8.30;5.13;;;;;20.90;101421.00;;;;5083043;28;20423;-75
2022/10/13 12:10:56;;;;;;;7.60;5.75;;;;;20.90;101428.00;;;;5091648;28;20202;-76
2022/10/13 12:13:25;;;;;;;9.20;5.63;;;;;20.80;101433.00;;;;5091654;28;20198;-75
2022/10/13 12:15:59;;;;;;;8.63;5.80;;;;;20.80;101428.00;;;;5092106;28;20591;-76
2022/10/13 12:18:32;;;;;;;7.30;5.72;;;;;20.80;101424.00;;;;5091664;28;20284;-76
2022/10/13 12:21:03;;;;;;;8.02;5.32;;;;;20.80;101428.00;;;;5080293;28;20229;-76
2022/10/13 12:23:32;;;;;;;8.55;5.60;;;;;20.80;101427.00;;;;5071526;28;20244;-76
2022/10/13 12:25:59;;;;;;;7.25;4.82;;;;;20.70;101421.00;;;;5071432;28;20665;-76